KVHN/VHN METAR and TAF weather

Enter ICAO airport designator
Station Type Date Time Source
KVHN METAR 2022/09/29 20:55 UTC NOAA

KVHN 292055Z AUTO 12011G16KT 10SM CLR 29/03 A3022 RMK AO2 T02860026


Station Type Date Time Source
KVHN Decoded METAR 2022/09/29 20:55 UTC NOAA

Station name not available
Sep 29, 2022 - 04:55 PM EDT / 2022.09.29 2055 UTC
Wind: from the ESE (120 degrees) at 13 MPH (11 KT) gusting to 18 MPH (16 KT):0
Visibility: 10 mile(s):0
Sky conditions: clear
Temperature: 83.5 F (28.6 C)
Dew Point: 36.7 F (2.6 C)
Relative Humidity: 18%
Pressure (altimeter): 30.22 in. Hg (1023 hPa)
ob: KVHN 292055Z AUTO 12011G16KT 10SM CLR 29/03 A3022 RMK AO2 T02860026
cycle: 21

Station Type Date Time Source
KVHN TAF UTC NOAA

Error!

Example: see airport list